TGL9303 ESSA-EGPH
Flight info
| Callsign | TGL9303 |
|---|---|
| Flight time | 2h 2m |
| Altitude | 36000 |
| Route | ARS N623 IBGAX DCT NIBNO DCT KLONN DCT ADN DCT NAXIL P600 PTH |
| Aircraft | A320/M-SDE3FGHIRWY/LB1 |
Departure
| Time | 2026-04-25 15:46 |
|---|---|
| Airport | Stockholm-Arlanda Airport (ESSA) |
Arrival
| Time | 2026-04-25 17:48 |
|---|---|
| Airport | Edinburgh Airport (EGPH) |
| Time | Latitude | Longitude | Altitude | Speed | Heading |
|---|---|---|---|---|---|
| 2026-04-25 15:16 | 59.64736 | 17.92600 | 111 ft | 0 kts | 34° |
| 2026-04-25 15:34 | 59.64720 | 17.92578 | 109 ft | 4 kts | 33° |
| 2026-04-25 15:34 | 59.64697 | 17.92554 | 110 ft | 4 kts | 4° |
| 2026-04-25 15:34 | 59.64690 | 17.92552 | 108 ft | 4 kts | 336° |
| 2026-04-25 15:35 | 59.64683 | 17.92560 | 109 ft | 0 kts | 286° |
| 2026-04-25 15:39 | 59.64684 | 17.92558 | 111 ft | 1 kts | 286° |
| 2026-04-25 15:40 | 59.64692 | 17.92502 | 111 ft | 7 kts | 286° |
| 2026-04-25 15:40 | 59.64697 | 17.92469 | 109 ft | 8 kts | 286° |
| 2026-04-25 15:40 | 59.64728 | 17.92260 | 110 ft | 11 kts | 286° |
| 2026-04-25 15:40 | 59.64753 | 17.92099 | 108 ft | 14 kts | 296° |
| 2026-04-25 15:41 | 59.64849 | 17.92090 | 106 ft | 15 kts | 11° |
| 2026-04-25 15:41 | 59.64957 | 17.92131 | 106 ft | 16 kts | 10° |
| 2026-04-25 15:41 | 59.65069 | 17.92171 | 106 ft | 17 kts | 10° |
| 2026-04-25 15:41 | 59.65185 | 17.92215 | 106 ft | 17 kts | 9° |
| 2026-04-25 15:42 | 59.65307 | 17.92267 | 105 ft | 19 kts | 14° |
| 2026-04-25 15:42 | 59.65394 | 17.92300 | 104 ft | 19 kts | 12° |
| 2026-04-25 15:42 | 59.65494 | 17.92470 | 105 ft | 19 kts | 51° |
| 2026-04-25 15:42 | 59.65542 | 17.92713 | 107 ft | 19 kts | 77° |
| 2026-04-25 15:43 | 59.65573 | 17.92966 | 109 ft | 19 kts | 75° |
| 2026-04-25 15:43 | 59.65606 | 17.93225 | 108 ft | 17 kts | 74° |
| 2026-04-25 15:43 | 59.65663 | 17.93370 | 109 ft | 12 kts | 45° |
| 2026-04-25 15:43 | 59.65715 | 17.93472 | 110 ft | 5 kts | 45° |
| 2026-04-25 15:44 | 59.65717 | 17.93478 | 111 ft | 0 kts | 45° |
| 2026-04-25 15:44 | 59.65721 | 17.93484 | 111 ft | 3 kts | 45° |
| 2026-04-25 15:44 | 59.65743 | 17.93529 | 112 ft | 6 kts | 46° |
| 2026-04-25 15:45 | 59.65778 | 17.93601 | 113 ft | 9 kts | 46° |
| 2026-04-25 15:45 | 59.65828 | 17.93702 | 115 ft | 12 kts | 45° |
| 2026-04-25 15:45 | 59.65873 | 17.93857 | 117 ft | 15 kts | 78° |
| 2026-04-25 15:45 | 59.65892 | 17.94013 | 116 ft | 25 kts | 77° |
| 2026-04-25 15:46 | 59.66056 | 17.95275 | 119 ft | 114 kts | 77° |
| 2026-04-25 15:46 | 59.66287 | 17.97129 | 213 ft | 154 kts | 72° |
| 2026-04-25 15:46 | 59.66531 | 17.99163 | 823 ft | 148 kts | 69° |
| 2026-04-25 15:46 | 59.66791 | 18.01114 | 1506 ft | 147 kts | 68° |
| 2026-04-25 15:47 | 59.67083 | 18.03090 | 2059 ft | 154 kts | 67° |
| 2026-04-25 15:47 | 59.67406 | 18.05253 | 2424 ft | 173 kts | 67° |
| 2026-04-25 15:47 | 59.67821 | 18.07603 | 2928 ft | 188 kts | 58° |
| 2026-04-25 15:47 | 59.68628 | 18.09716 | 3447 ft | 198 kts | 38° |
| 2026-04-25 15:48 | 59.69811 | 18.10901 | 4334 ft | 189 kts | 8° |
| 2026-04-25 15:48 | 59.71102 | 18.10647 | 4725 ft | 189 kts | 338° |
| 2026-04-25 15:48 | 59.72135 | 18.08902 | 5044 ft | 212 kts | 307° |
| 2026-04-25 15:48 | 59.72508 | 18.06219 | 6198 ft | 206 kts | 280° |
| 2026-04-25 15:49 | 59.72352 | 18.03263 | 6864 ft | 222 kts | 266° |
| 2026-04-25 15:49 | 59.72004 | 18.00203 | 7539 ft | 229 kts | 263° |
| 2026-04-25 15:49 | 59.71607 | 17.97230 | 8532 ft | 224 kts | 262° |
| 2026-04-25 15:49 | 59.71157 | 17.94298 | 9535 ft | 221 kts | 260° |
| 2026-04-25 15:50 | 59.70632 | 17.91415 | 10311 ft | 228 kts | 253° |
| 2026-04-25 15:50 | 59.69936 | 17.88425 | 10684 ft | 251 kts | 251° |
| 2026-04-25 15:50 | 59.69217 | 17.85140 | 11057 ft | 269 kts | 256° |
| 2026-04-25 15:50 | 59.68663 | 17.81482 | 11396 ft | 288 kts | 262° |
| 2026-04-25 15:51 | 59.68183 | 17.77485 | 11707 ft | 309 kts | 262° |
| 2026-04-25 15:51 | 59.67866 | 17.74618 | 11923 ft | 322 kts | 263° |
| 2026-04-25 15:51 | 59.67271 | 17.68665 | 12396 ft | 344 kts | 264° |
| 2026-04-25 15:51 | 59.66677 | 17.64039 | 13254 ft | 346 kts | 251° |
| 2026-04-25 15:52 | 59.65390 | 17.60080 | 14489 ft | 345 kts | 229° |
| 2026-04-25 15:52 | 59.63449 | 17.57260 | 15315 ft | 352 kts | 220° |
| 2026-04-25 15:52 | 59.61575 | 17.54059 | 15701 ft | 356 kts | 234° |
| 2026-04-25 15:52 | 59.60333 | 17.49944 | 16475 ft | 346 kts | 255° |
| 2026-04-25 15:53 | 59.59910 | 17.45347 | 17266 ft | 338 kts | 273° |
| 2026-04-25 15:53 | 59.60119 | 17.40723 | 17934 ft | 340 kts | 280° |
| 2026-04-25 15:53 | 59.60418 | 17.36064 | 18513 ft | 344 kts | 278° |
| 2026-04-25 15:53 | 59.60571 | 17.31318 | 19100 ft | 348 kts | 274° |
| 2026-04-25 15:54 | 59.60574 | 17.26511 | 19679 ft | 353 kts | 271° |
| 2026-04-25 15:54 | 59.60480 | 17.21647 | 20256 ft | 356 kts | 270° |
| 2026-04-25 15:54 | 59.60340 | 17.16731 | 20829 ft | 360 kts | 270° |
| 2026-04-25 15:54 | 59.60181 | 17.11784 | 21398 ft | 363 kts | 269° |
| 2026-04-25 15:55 | 59.60018 | 17.06793 | 21973 ft | 366 kts | 269° |
| 2026-04-25 15:55 | 59.59854 | 17.01755 | 22533 ft | 369 kts | 269° |
| 2026-04-25 15:55 | 59.59688 | 16.96678 | 23099 ft | 372 kts | 269° |
| 2026-04-25 15:55 | 59.59521 | 16.91560 | 23590 ft | 375 kts | 269° |
| 2026-04-25 15:56 | 59.59351 | 16.86402 | 24005 ft | 378 kts | 269° |
| 2026-04-25 15:56 | 59.59178 | 16.81184 | 24402 ft | 382 kts | 269° |
| 2026-04-25 15:56 | 59.59001 | 16.75927 | 24801 ft | 386 kts | 269° |
| 2026-04-25 15:56 | 59.58821 | 16.70623 | 25191 ft | 389 kts | 269° |
| 2026-04-25 15:57 | 59.58808 | 16.65274 | 25574 ft | 391 kts | 276° |
| 2026-04-25 15:57 | 59.59125 | 16.60018 | 25946 ft | 392 kts | 283° |
| 2026-04-25 15:57 | 59.59669 | 16.54724 | 26313 ft | 395 kts | 283° |
| 2026-04-25 15:57 | 59.60215 | 16.49394 | 26685 ft | 398 kts | 283° |
| 2026-04-25 15:58 | 59.60758 | 16.44016 | 27043 ft | 401 kts | 283° |
| 2026-04-25 15:58 | 59.61301 | 16.38586 | 27403 ft | 404 kts | 283° |
| 2026-04-25 15:58 | 59.61846 | 16.33111 | 27740 ft | 408 kts | 283° |
| 2026-04-25 15:58 | 59.62392 | 16.27602 | 28076 ft | 411 kts | 283° |
| 2026-04-25 15:59 | 59.62940 | 16.22049 | 28400 ft | 413 kts | 283° |
| 2026-04-25 15:59 | 59.63536 | 16.16474 | 28729 ft | 415 kts | 285° |
| 2026-04-25 15:59 | 59.64188 | 16.10893 | 29042 ft | 418 kts | 285° |
| 2026-04-25 15:59 | 59.64853 | 16.05288 | 29342 ft | 421 kts | 285° |
| 2026-04-25 16:00 | 59.65516 | 15.99629 | 29639 ft | 424 kts | 285° |
| 2026-04-25 16:00 | 59.65739 | 15.97702 | 29738 ft | 424 kts | 285° |
| 2026-04-25 16:00 | 59.66826 | 15.88199 | 30187 ft | 428 kts | 285° |
| 2026-04-25 16:00 | 59.67477 | 15.82440 | 30463 ft | 430 kts | 285° |
| 2026-04-25 16:01 | 59.68126 | 15.76660 | 30725 ft | 432 kts | 285° |
| 2026-04-25 16:01 | 59.68776 | 15.70847 | 30025 ft | 432 kts | 285° |
| 2026-04-25 16:01 | 59.69422 | 15.65044 | 31381 ft | 432 kts | 285° |
| 2026-04-25 16:01 | 59.70067 | 15.59229 | 31727 ft | 432 kts | 285° |
| 2026-04-25 16:02 | 59.70707 | 15.53430 | 32067 ft | 431 kts | 285° |
| 2026-04-25 16:02 | 59.71345 | 15.47627 | 32384 ft | 431 kts | 285° |
| 2026-04-25 16:02 | 59.71943 | 15.41816 | 32695 ft | 432 kts | 282° |
| 2026-04-25 16:02 | 59.72281 | 15.35889 | 33004 ft | 435 kts | 277° |
| 2026-04-25 16:03 | 59.72379 | 15.29894 | 33307 ft | 435 kts | 276° |
| 2026-04-25 16:03 | 59.72470 | 15.23909 | 33575 ft | 435 kts | 276° |
| 2026-04-25 16:03 | 59.72570 | 15.17913 | 33830 ft | 435 kts | 276° |
| 2026-04-25 16:03 | 59.72668 | 15.11931 | 34051 ft | 434 kts | 276° |
| 2026-04-25 16:04 | 59.72761 | 15.05950 | 34269 ft | 434 kts | 276° |
| 2026-04-25 16:04 | 59.72851 | 14.99970 | 34454 ft | 434 kts | 276° |
| 2026-04-25 16:04 | 59.72936 | 14.93984 | 34653 ft | 434 kts | 276° |
| 2026-04-25 16:04 | 59.73017 | 14.88087 | 34835 ft | 434 kts | 276° |
| 2026-04-25 16:05 | 59.73096 | 14.82108 | 35015 ft | 434 kts | 276° |
| 2026-04-25 16:05 | 59.73173 | 14.76134 | 35189 ft | 434 kts | 276° |
| 2026-04-25 16:05 | 59.73317 | 14.64175 | 35555 ft | 434 kts | 276° |
| 2026-04-25 16:06 | 59.73386 | 14.58209 | 35700 ft | 434 kts | 276° |
| 2026-04-25 16:06 | 59.73514 | 14.46263 | 35727 ft | 433 kts | 276° |
| 2026-04-25 16:07 | 59.73631 | 14.34345 | 35732 ft | 432 kts | 276° |
| 2026-04-25 16:07 | 59.73738 | 14.22432 | 35739 ft | 432 kts | 276° |
| 2026-04-25 16:08 | 59.73833 | 14.10530 | 35743 ft | 432 kts | 276° |
| 2026-04-25 16:08 | 59.73918 | 13.98632 | 35748 ft | 431 kts | 276° |
| 2026-04-25 16:09 | 59.73992 | 13.86746 | 35755 ft | 431 kts | 276° |
| 2026-04-25 16:09 | 59.74056 | 13.74859 | 35760 ft | 431 kts | 276° |
| 2026-04-25 16:10 | 59.74108 | 13.62973 | 35767 ft | 431 kts | 276° |
| 2026-04-25 16:10 | 59.74150 | 13.51099 | 35767 ft | 431 kts | 275° |
| 2026-04-25 16:11 | 59.74181 | 13.39223 | 35773 ft | 431 kts | 275° |
| 2026-04-25 16:11 | 59.74202 | 13.27427 | 35780 ft | 431 kts | 275° |
| 2026-04-25 16:12 | 59.74211 | 13.15470 | 35787 ft | 431 kts | 275° |
| 2026-04-25 16:12 | 59.74210 | 13.03661 | 35791 ft | 431 kts | 275° |
| 2026-04-25 16:13 | 59.74198 | 12.91771 | 35800 ft | 431 kts | 275° |
| 2026-04-25 16:13 | 59.74176 | 12.79887 | 35806 ft | 431 kts | 275° |
| 2026-04-25 16:14 | 59.74143 | 12.67994 | 35808 ft | 431 kts | 275° |
| 2026-04-25 16:14 | 59.74099 | 12.56108 | 35828 ft | 431 kts | 275° |
| 2026-04-25 16:15 | 59.74044 | 12.44247 | 35819 ft | 429 kts | 275° |
| 2026-04-25 16:15 | 59.73603 | 12.32399 | 35824 ft | 435 kts | 268° |
| 2026-04-25 16:16 | 59.72425 | 12.20574 | 35828 ft | 438 kts | 265° |
| 2026-04-25 16:16 | 59.71210 | 12.08785 | 35836 ft | 436 kts | 265° |
| 2026-04-25 16:17 | 59.70005 | 11.97002 | 35841 ft | 437 kts | 265° |
| 2026-04-25 16:17 | 59.68790 | 11.85220 | 35854 ft | 437 kts | 265° |
| 2026-04-25 16:18 | 59.67560 | 11.73444 | 35860 ft | 437 kts | 265° |
| 2026-04-25 16:18 | 59.66312 | 11.61671 | 35862 ft | 437 kts | 265° |
| 2026-04-25 16:19 | 59.65052 | 11.49915 | 35880 ft | 437 kts | 265° |
| 2026-04-25 16:19 | 59.63783 | 11.38181 | 35864 ft | 435 kts | 265° |
| 2026-04-25 16:20 | 59.61869 | 11.20668 | 35871 ft | 435 kts | 265° |
| 2026-04-25 16:21 | 59.59933 | 11.03184 | 35893 ft | 434 kts | 264° |
| 2026-04-25 16:21 | 59.58630 | 10.91545 | 35898 ft | 434 kts | 264° |
| 2026-04-25 16:22 | 59.57326 | 10.80004 | 35902 ft | 434 kts | 264° |
| 2026-04-25 16:22 | 59.56005 | 10.68407 | 35902 ft | 433 kts | 264° |
| 2026-04-25 16:23 | 59.54675 | 10.56837 | 35900 ft | 432 kts | 264° |
| 2026-04-25 16:23 | 59.53338 | 10.45302 | 35900 ft | 431 kts | 264° |
| 2026-04-25 16:24 | 59.51994 | 10.33799 | 35900 ft | 431 kts | 264° |
| 2026-04-25 16:24 | 59.50641 | 10.22311 | 35899 ft | 430 kts | 264° |
| 2026-04-25 16:25 | 59.49278 | 10.10841 | 35903 ft | 430 kts | 264° |
| 2026-04-25 16:25 | 59.47907 | 9.99385 | 35907 ft | 430 kts | 264° |
| 2026-04-25 16:26 | 59.46526 | 9.87957 | 35910 ft | 430 kts | 264° |
| 2026-04-25 16:26 | 59.45137 | 9.76540 | 35921 ft | 429 kts | 264° |
| 2026-04-25 16:27 | 59.43738 | 9.65140 | 35925 ft | 429 kts | 264° |
| 2026-04-25 16:27 | 59.42332 | 9.53768 | 35933 ft | 428 kts | 264° |
| 2026-04-25 16:28 | 59.40917 | 9.42414 | 35937 ft | 428 kts | 264° |
| 2026-04-25 16:28 | 59.39497 | 9.31103 | 35944 ft | 427 kts | 264° |
| 2026-04-25 16:29 | 59.38065 | 9.19795 | 35949 ft | 427 kts | 264° |
| 2026-04-25 16:29 | 59.36630 | 9.08541 | 35940 ft | 424 kts | 264° |
| 2026-04-25 16:30 | 59.35436 | 8.99251 | 35945 ft | 422 kts | 264° |
| 2026-04-25 16:30 | 59.33994 | 8.88086 | 35951 ft | 422 kts | 264° |
| 2026-04-25 16:31 | 59.32543 | 8.76946 | 35960 ft | 421 kts | 264° |
| 2026-04-25 16:31 | 59.31085 | 8.65833 | 35971 ft | 421 kts | 264° |
| 2026-04-25 16:32 | 59.29621 | 8.54764 | 35967 ft | 420 kts | 263° |
| 2026-04-25 16:32 | 59.28152 | 8.43731 | 35963 ft | 418 kts | 263° |
| 2026-04-25 16:33 | 59.26681 | 8.32760 | 35956 ft | 417 kts | 263° |
| 2026-04-25 16:33 | 59.25205 | 8.21823 | 35961 ft | 416 kts | 263° |
| 2026-04-25 16:34 | 59.23722 | 8.10910 | 35972 ft | 416 kts | 263° |
| 2026-04-25 16:34 | 59.22228 | 8.00001 | 35977 ft | 416 kts | 263° |
| 2026-04-25 16:35 | 59.20725 | 7.89113 | 35986 ft | 415 kts | 263° |
| 2026-04-25 16:35 | 59.19225 | 7.78308 | 35993 ft | 415 kts | 263° |
| 2026-04-25 16:36 | 59.17696 | 7.67370 | 36003 ft | 416 kts | 263° |
| 2026-04-25 16:36 | 59.16176 | 7.56569 | 36010 ft | 416 kts | 262° |
| 2026-04-25 16:37 | 59.14635 | 7.45702 | 36019 ft | 416 kts | 262° |
| 2026-04-25 16:37 | 59.13086 | 7.34851 | 36024 ft | 416 kts | 262° |
| 2026-04-25 16:38 | 59.11527 | 7.23995 | 36033 ft | 417 kts | 262° |
| 2026-04-25 16:38 | 59.09962 | 7.13192 | 36026 ft | 413 kts | 262° |
| 2026-04-25 16:39 | 59.08395 | 7.02422 | 36028 ft | 415 kts | 262° |
| 2026-04-25 16:39 | 59.06815 | 6.91641 | 36031 ft | 414 kts | 261° |
| 2026-04-25 16:40 | 59.05227 | 6.80873 | 36034 ft | 415 kts | 261° |
| 2026-04-25 16:40 | 59.03628 | 6.70103 | 36038 ft | 415 kts | 261° |
| 2026-04-25 16:41 | 59.02017 | 6.59327 | 36044 ft | 416 kts | 261° |
| 2026-04-25 16:41 | 58.99584 | 6.43179 | 36053 ft | 416 kts | 260° |
| 2026-04-25 16:42 | 58.97948 | 6.32408 | 36044 ft | 417 kts | 260° |
| 2026-04-25 16:42 | 58.96304 | 6.21646 | 36066 ft | 417 kts | 260° |
| 2026-04-25 16:43 | 58.94644 | 6.10858 | 36077 ft | 418 kts | 259° |
| 2026-04-25 16:43 | 58.92974 | 6.00081 | 36097 ft | 418 kts | 259° |
| 2026-04-25 16:44 | 58.91297 | 5.89321 | 36098 ft | 418 kts | 259° |
| 2026-04-25 16:44 | 58.89612 | 5.78569 | 36110 ft | 418 kts | 259° |
| 2026-04-25 16:45 | 58.87928 | 5.67897 | 36102 ft | 418 kts | 259° |
| 2026-04-25 16:45 | 58.86224 | 5.57169 | 36108 ft | 418 kts | 259° |
| 2026-04-25 16:46 | 58.84513 | 5.46455 | 36103 ft | 417 kts | 258° |
| 2026-04-25 16:46 | 58.83073 | 5.37496 | 36109 ft | 417 kts | 258° |
| 2026-04-25 16:47 | 58.81068 | 5.25091 | 36113 ft | 416 kts | 258° |
| 2026-04-25 16:47 | 58.79334 | 5.14439 | 36126 ft | 416 kts | 258° |
| 2026-04-25 16:48 | 58.77594 | 5.03808 | 36129 ft | 416 kts | 258° |
| 2026-04-25 16:48 | 58.75847 | 4.93200 | 36152 ft | 415 kts | 258° |
| 2026-04-25 16:49 | 58.74093 | 4.82613 | 36145 ft | 415 kts | 257° |
| 2026-04-25 16:49 | 58.72332 | 4.72046 | 36159 ft | 414 kts | 257° |
| 2026-04-25 16:50 | 58.70564 | 4.61499 | 36158 ft | 414 kts | 257° |
| 2026-04-25 16:50 | 58.68788 | 4.50969 | 36165 ft | 414 kts | 257° |
| 2026-04-25 16:51 | 58.67004 | 4.40455 | 36163 ft | 414 kts | 257° |
| 2026-04-25 16:51 | 58.65517 | 4.31735 | 36172 ft | 413 kts | 257° |
| 2026-04-25 16:52 | 58.63415 | 4.19481 | 36176 ft | 413 kts | 257° |
| 2026-04-25 16:52 | 58.61608 | 4.09006 | 36185 ft | 413 kts | 256° |
| 2026-04-25 16:53 | 58.58882 | 3.93323 | 36192 ft | 413 kts | 256° |
| 2026-04-25 16:54 | 58.57054 | 3.82886 | 36197 ft | 413 kts | 256° |
| 2026-04-25 16:54 | 58.55218 | 3.72459 | 36204 ft | 413 kts | 256° |
| 2026-04-25 16:55 | 58.53372 | 3.62033 | 36207 ft | 413 kts | 256° |
| 2026-04-25 16:55 | 58.51519 | 3.51627 | 36211 ft | 413 kts | 256° |
| 2026-04-25 16:56 | 58.49670 | 3.41305 | 36220 ft | 413 kts | 255° |
| 2026-04-25 16:56 | 58.47801 | 3.30925 | 36220 ft | 413 kts | 255° |
| 2026-04-25 16:57 | 58.45924 | 3.20556 | 36225 ft | 413 kts | 255° |
| 2026-04-25 16:57 | 58.44044 | 3.10192 | 36227 ft | 413 kts | 255° |
| 2026-04-25 16:58 | 58.42158 | 2.99844 | 36219 ft | 413 kts | 255° |
| 2026-04-25 16:58 | 58.40267 | 2.89516 | 36221 ft | 413 kts | 255° |
| 2026-04-25 16:59 | 58.38336 | 2.79204 | 36218 ft | 413 kts | 253° |
| 2026-04-25 16:59 | 58.36360 | 2.68944 | 36225 ft | 412 kts | 255° |
| 2026-04-25 17:00 | 58.34456 | 2.58654 | 36218 ft | 412 kts | 255° |
| 2026-04-25 17:00 | 58.32533 | 2.48375 | 36230 ft | 412 kts | 254° |
| 2026-04-25 17:01 | 58.30591 | 2.38125 | 36235 ft | 412 kts | 254° |
| 2026-04-25 17:01 | 58.28628 | 2.27852 | 36222 ft | 413 kts | 254° |
| 2026-04-25 17:02 | 58.26669 | 2.17659 | 36231 ft | 411 kts | 253° |
| 2026-04-25 17:02 | 58.24697 | 2.07436 | 36230 ft | 413 kts | 253° |
| 2026-04-25 17:03 | 58.22713 | 1.97207 | 36233 ft | 413 kts | 253° |
| 2026-04-25 17:03 | 58.20721 | 1.86988 | 36234 ft | 414 kts | 253° |
| 2026-04-25 17:04 | 58.18718 | 1.76761 | 36237 ft | 414 kts | 253° |
| 2026-04-25 17:04 | 58.16704 | 1.66537 | 36242 ft | 414 kts | 253° |
| 2026-04-25 17:05 | 58.14680 | 1.56316 | 36247 ft | 415 kts | 253° |
| 2026-04-25 17:05 | 58.11639 | 1.41053 | 36253 ft | 415 kts | 253° |
| 2026-04-25 17:06 | 58.09575 | 1.30763 | 36263 ft | 416 kts | 253° |
| 2026-04-25 17:06 | 58.07528 | 1.20607 | 36264 ft | 416 kts | 253° |
| 2026-04-25 17:07 | 58.05455 | 1.10378 | 36271 ft | 417 kts | 252° |
| 2026-04-25 17:07 | 58.03373 | 1.00155 | 36271 ft | 418 kts | 252° |
| 2026-04-25 17:08 | 58.01281 | 0.89933 | 36276 ft | 418 kts | 252° |
| 2026-04-25 17:08 | 57.99176 | 0.79703 | 36277 ft | 419 kts | 252° |
| 2026-04-25 17:09 | 57.97062 | 0.69479 | 36279 ft | 419 kts | 252° |
| 2026-04-25 17:09 | 57.94937 | 0.59254 | 36276 ft | 420 kts | 252° |
| 2026-04-25 17:10 | 57.92801 | 0.49028 | 36281 ft | 420 kts | 252° |
| 2026-04-25 17:10 | 57.90654 | 0.38804 | 36279 ft | 420 kts | 252° |
| 2026-04-25 17:11 | 57.88497 | 0.28581 | 36284 ft | 421 kts | 251° |
| 2026-04-25 17:11 | 57.86329 | 0.18354 | 36284 ft | 421 kts | 251° |
| 2026-04-25 17:12 | 57.84150 | 0.08129 | 36283 ft | 422 kts | 251° |
| 2026-04-25 17:12 | 57.81961 | -0.02087 | 36285 ft | 422 kts | 251° |
| 2026-04-25 17:13 | 57.80491 | -0.08924 | 36290 ft | 423 kts | 251° |
| 2026-04-25 17:13 | 57.77551 | -0.22527 | 36286 ft | 423 kts | 251° |
| 2026-04-25 17:14 | 57.75332 | -0.32737 | 36290 ft | 424 kts | 251° |
| 2026-04-25 17:14 | 57.73100 | -0.42952 | 36289 ft | 424 kts | 250° |
| 2026-04-25 17:15 | 57.70859 | -0.53163 | 36290 ft | 424 kts | 250° |
| 2026-04-25 17:15 | 57.68609 | -0.63363 | 36293 ft | 425 kts | 250° |
| 2026-04-25 17:16 | 57.66347 | -0.73563 | 36291 ft | 425 kts | 250° |
| 2026-04-25 17:16 | 57.64458 | -0.82046 | 36292 ft | 426 kts | 250° |
| 2026-04-25 17:17 | 57.62178 | -0.92239 | 36294 ft | 426 kts | 250° |
| 2026-04-25 17:17 | 57.59887 | -1.02434 | 36290 ft | 426 kts | 250° |
| 2026-04-25 17:18 | 57.57586 | -1.12623 | 36294 ft | 427 kts | 249° |
| 2026-04-25 17:18 | 57.55273 | -1.22814 | 36290 ft | 427 kts | 249° |
| 2026-04-25 17:19 | 57.52951 | -1.32996 | 36300 ft | 428 kts | 249° |
| 2026-04-25 17:19 | 57.50619 | -1.43176 | 36300 ft | 428 kts | 249° |
| 2026-04-25 17:20 | 57.48274 | -1.53361 | 36295 ft | 428 kts | 249° |
| 2026-04-25 17:20 | 57.45921 | -1.63530 | 36295 ft | 429 kts | 249° |
| 2026-04-25 17:21 | 57.43556 | -1.73703 | 36299 ft | 429 kts | 248° |
| 2026-04-25 17:21 | 57.41182 | -1.83869 | 36292 ft | 430 kts | 248° |
| 2026-04-25 17:22 | 57.39200 | -1.92320 | 36295 ft | 430 kts | 248° |
| 2026-04-25 17:22 | 57.36420 | -2.04117 | 36296 ft | 430 kts | 248° |
| 2026-04-25 17:23 | 57.34018 | -2.14272 | 36296 ft | 430 kts | 248° |
| 2026-04-25 17:23 | 57.31339 | -2.24173 | 36293 ft | 432 kts | 236° |
| 2026-04-25 17:24 | 57.27066 | -2.31976 | 36286 ft | 437 kts | 216° |
| 2026-04-25 17:24 | 57.22078 | -2.38394 | 36286 ft | 437 kts | 217° |
| 2026-04-25 17:25 | 57.17106 | -2.44844 | 36287 ft | 437 kts | 217° |
| 2026-04-25 17:25 | 57.12126 | -2.51283 | 36291 ft | 438 kts | 217° |
| 2026-04-25 17:26 | 57.07143 | -2.57700 | 36175 ft | 436 kts | 216° |
| 2026-04-25 17:26 | 57.04669 | -2.60876 | 35656 ft | 432 kts | 216° |
| 2026-04-25 17:26 | 57.02207 | -2.64033 | 34759 ft | 432 kts | 216° |
| 2026-04-25 17:27 | 56.99737 | -2.67196 | 33673 ft | 434 kts | 216° |
| 2026-04-25 17:27 | 56.97253 | -2.70371 | 32469 ft | 437 kts | 216° |
| 2026-04-25 17:27 | 56.94755 | -2.73559 | 31322 ft | 439 kts | 216° |
| 2026-04-25 17:27 | 56.93090 | -2.75679 | 30563 ft | 441 kts | 216° |
| 2026-04-25 17:28 | 56.89733 | -2.79939 | 29205 ft | 436 kts | 216° |
| 2026-04-25 17:28 | 56.87260 | -2.83074 | 28316 ft | 429 kts | 216° |
| 2026-04-25 17:28 | 56.84829 | -2.86156 | 27454 ft | 423 kts | 216° |
| 2026-04-25 17:28 | 56.82425 | -2.89201 | 26607 ft | 417 kts | 216° |
| 2026-04-25 17:29 | 56.80056 | -2.92196 | 25772 ft | 412 kts | 215° |
| 2026-04-25 17:29 | 56.77715 | -2.95151 | 24971 ft | 407 kts | 215° |
| 2026-04-25 17:29 | 56.75401 | -2.98067 | 24192 ft | 402 kts | 215° |
| 2026-04-25 17:29 | 56.73114 | -3.00939 | 23356 ft | 397 kts | 215° |
| 2026-04-25 17:30 | 56.70854 | -3.03771 | 22472 ft | 392 kts | 215° |
| 2026-04-25 17:30 | 56.68626 | -3.06558 | 21630 ft | 387 kts | 216° |
| 2026-04-25 17:30 | 56.66422 | -3.09313 | 20814 ft | 382 kts | 216° |
| 2026-04-25 17:30 | 56.64244 | -3.12035 | 20019 ft | 377 kts | 216° |
| 2026-04-25 17:31 | 56.62092 | -3.14719 | 19238 ft | 373 kts | 216° |
| 2026-04-25 17:31 | 56.59960 | -3.17376 | 18462 ft | 369 kts | 216° |
| 2026-04-25 17:31 | 56.57880 | -3.19963 | 17670 ft | 367 kts | 216° |
| 2026-04-25 17:31 | 56.55786 | -3.22566 | 17124 ft | 363 kts | 216° |
| 2026-04-25 17:32 | 56.53709 | -3.25143 | 16572 ft | 361 kts | 216° |
| 2026-04-25 17:32 | 56.51645 | -3.27701 | 16030 ft | 358 kts | 216° |
| 2026-04-25 17:32 | 56.49594 | -3.30240 | 15502 ft | 356 kts | 216° |
| 2026-04-25 17:32 | 56.47556 | -3.32760 | 14976 ft | 354 kts | 216° |
| 2026-04-25 17:33 | 56.45528 | -3.35263 | 14460 ft | 352 kts | 216° |
| 2026-04-25 17:33 | 56.43513 | -3.37752 | 13934 ft | 350 kts | 217° |
| 2026-04-25 17:33 | 56.41539 | -3.40280 | 13422 ft | 346 kts | 218° |
| 2026-04-25 17:33 | 56.39590 | -3.42829 | 12849 ft | 345 kts | 218° |
| 2026-04-25 17:34 | 56.37630 | -3.45398 | 12020 ft | 352 kts | 218° |
| 2026-04-25 17:34 | 56.35649 | -3.47980 | 11316 ft | 353 kts | 217° |
| 2026-04-25 17:34 | 56.33638 | -3.50587 | 10690 ft | 355 kts | 217° |
| 2026-04-25 17:34 | 56.31673 | -3.53122 | 10522 ft | 341 kts | 217° |
| 2026-04-25 17:35 | 56.29787 | -3.55547 | 10391 ft | 327 kts | 217° |
| 2026-04-25 17:35 | 56.27971 | -3.57881 | 10286 ft | 314 kts | 218° |
| 2026-04-25 17:35 | 56.26228 | -3.60119 | 10162 ft | 301 kts | 218° |
| 2026-04-25 17:35 | 56.24559 | -3.62260 | 10055 ft | 289 kts | 218° |
| 2026-04-25 17:36 | 56.22930 | -3.64349 | 9645 ft | 288 kts | 218° |
| 2026-04-25 17:36 | 56.21309 | -3.66431 | 9259 ft | 285 kts | 218° |
| 2026-04-25 17:36 | 56.19768 | -3.68636 | 8873 ft | 281 kts | 226° |
| 2026-04-25 17:36 | 56.18488 | -3.71253 | 8495 ft | 278 kts | 235° |
| 2026-04-25 17:37 | 56.17333 | -3.74035 | 8092 ft | 277 kts | 235° |
| 2026-04-25 17:37 | 56.16179 | -3.76786 | 7659 ft | 275 kts | 234° |
| 2026-04-25 17:37 | 56.15025 | -3.79493 | 7391 ft | 270 kts | 234° |
| 2026-04-25 17:37 | 56.13900 | -3.82101 | 7266 ft | 259 kts | 234° |
| 2026-04-25 17:38 | 56.12772 | -3.84613 | 7241 ft | 263 kts | 226° |
| 2026-04-25 17:38 | 56.11781 | -3.85911 | 7240 ft | 272 kts | 208° |
| 2026-04-25 17:38 | 56.09287 | -3.86840 | 7243 ft | 277 kts | 185° |
| 2026-04-25 17:38 | 56.07359 | -3.86944 | 7239 ft | 277 kts | 184° |
| 2026-04-25 17:39 | 56.05426 | -3.87044 | 7239 ft | 277 kts | 184° |
| 2026-04-25 17:39 | 56.03500 | -3.87149 | 7243 ft | 277 kts | 184° |
| 2026-04-25 17:39 | 56.01573 | -3.87255 | 7239 ft | 276 kts | 184° |
| 2026-04-25 17:39 | 55.99653 | -3.87359 | 7234 ft | 276 kts | 184° |
| 2026-04-25 17:40 | 55.97760 | -3.87465 | 7153 ft | 267 kts | 184° |
| 2026-04-25 17:40 | 55.95954 | -3.87563 | 6986 ft | 254 kts | 184° |
| 2026-04-25 17:40 | 55.94198 | -3.87656 | 6532 ft | 252 kts | 184° |
| 2026-04-25 17:40 | 55.92453 | -3.87753 | 6064 ft | 249 kts | 184° |
| 2026-04-25 17:41 | 55.90729 | -3.87857 | 5616 ft | 247 kts | 184° |
| 2026-04-25 17:41 | 55.89021 | -3.87970 | 5187 ft | 245 kts | 184° |
| 2026-04-25 17:41 | 55.87331 | -3.88090 | 4752 ft | 241 kts | 184° |
| 2026-04-25 17:41 | 55.85654 | -3.88205 | 4408 ft | 242 kts | 179° |
| 2026-04-25 17:42 | 55.84050 | -3.87350 | 4084 ft | 242 kts | 147° |
| 2026-04-25 17:42 | 55.82955 | -3.85181 | 3991 ft | 235 kts | 115° |
| 2026-04-25 17:42 | 55.82466 | -3.82447 | 3997 ft | 235 kts | 107° |
| 2026-04-25 17:42 | 55.82018 | -3.79636 | 3993 ft | 236 kts | 107° |
| 2026-04-25 17:43 | 55.81872 | -3.76774 | 3997 ft | 236 kts | 77° |
| 2026-04-25 17:43 | 55.82532 | -3.74086 | 4004 ft | 241 kts | 60° |
| 2026-04-25 17:43 | 55.83434 | -3.71581 | 3998 ft | 238 kts | 58° |
| 2026-04-25 17:43 | 55.84278 | -3.69075 | 3997 ft | 233 kts | 59° |
| 2026-04-25 17:44 | 55.85093 | -3.66650 | 3805 ft | 226 kts | 59° |
| 2026-04-25 17:44 | 55.85887 | -3.64285 | 3508 ft | 223 kts | 59° |
| 2026-04-25 17:44 | 55.86662 | -3.61984 | 3199 ft | 210 kts | 60° |
| 2026-04-25 17:44 | 55.87396 | -3.59795 | 2930 ft | 205 kts | 60° |
| 2026-04-25 17:45 | 55.88116 | -3.57656 | 2636 ft | 197 kts | 60° |
| 2026-04-25 17:45 | 55.88351 | -3.56957 | 2564 ft | 193 kts | 60° |
| 2026-04-25 17:45 | 55.89413 | -3.53807 | 2161 ft | 166 kts | 62° |
| 2026-04-25 17:45 | 55.89986 | -3.52105 | 1936 ft | 154 kts | 62° |
| 2026-04-25 17:46 | 55.90512 | -3.50541 | 1726 ft | 140 kts | 62° |
| 2026-04-25 17:46 | 55.90992 | -3.49120 | 1536 ft | 130 kts | 62° |
| 2026-04-25 17:46 | 55.91465 | -3.47714 | 1378 ft | 132 kts | 61° |
| 2026-04-25 17:46 | 55.91926 | -3.46357 | 1131 ft | 125 kts | 62° |
| 2026-04-25 17:47 | 55.92367 | -3.45045 | 874 ft | 121 kts | 61° |
| 2026-04-25 17:47 | 55.92775 | -3.43794 | 736 ft | 115 kts | 59° |
| 2026-04-25 17:47 | 55.93197 | -3.42550 | 662 ft | 120 kts | 59° |
| 2026-04-25 17:47 | 55.93633 | -3.41278 | 463 ft | 119 kts | 58° |
| 2026-04-25 17:48 | 55.94472 | -3.38811 | 176 ft | 115 kts | 59° |
| 2026-04-25 17:48 | 55.94869 | -3.37648 | 111 ft | 94 kts | 59° |
| 2026-04-25 17:48 | 55.95097 | -3.36960 | 113 ft | 37 kts | 59° |
| 2026-04-25 17:49 | 55.95218 | -3.36608 | 111 ft | 24 kts | 60° |
| 2026-04-25 17:49 | 55.95257 | -3.36486 | 111 ft | 10 kts | 63° |
| 2026-04-25 17:49 | 55.95229 | -3.36389 | 113 ft | 9 kts | 149° |
| 2026-04-25 17:49 | 55.95190 | -3.36348 | 115 ft | 5 kts | 149° |
| 2026-04-25 17:50 | 55.95183 | -3.36341 | 111 ft | 0 kts | 149° |
| 2026-04-25 17:50 | 55.95171 | -3.36328 | 112 ft | 4 kts | 149° |
| 2026-04-25 17:50 | 55.95135 | -3.36304 | 114 ft | 7 kts | 184° |
| 2026-04-25 17:51 | 55.95102 | -3.36372 | 116 ft | 7 kts | 236° |
| 2026-04-25 17:51 | 55.95083 | -3.36400 | 116 ft | 0 kts | 202° |
| 2026-04-25 17:51 | 55.95076 | -3.36403 | 116 ft | 4 kts | 191° |
| 2026-04-25 17:51 | 55.95041 | -3.36378 | 115 ft | 0 kts | 154° |
| 2026-04-25 17:52 | 55.95035 | -3.36363 | 114 ft | 4 kts | 127° |
| 2026-04-25 17:52 | 55.95028 | -3.36345 | 115 ft | 6 kts | 123° |
| 2026-04-25 17:52 | 55.94996 | -3.36238 | 113 ft | 1 kts | 117° |
| 2026-04-25 17:52 | 55.94995 | -3.36234 | 114 ft | 0 kts | 117° |